Time;durP1;ratioP1;P1;durP2;ratioP2;P2;SDS_P1;SDS_P2;PMS_P1;PMS_P2;Temp;Humidity;BMP_temperature;BMP_pressure;BME280_temperature;BME280_humidity;BME280_pressure;Samples;Min_cycle;Max_cycle;Signal;HPM_P1;HPM_P2
2022/12/17 13:06:47;;;;;;;28.33;24.13;;;17.10;99.90;;;;;;5087552;28;20205;-80
2022/12/17 13:09:18;;;;;;;33.00;22.97;;;17.10;99.90;;;;;;5075258;28;20217;-80
2022/12/17 13:12:03;;;;;;;36.50;25.53;;;17.10;99.90;;;;;;5047522;28;22218;-80
2022/12/17 13:14:58;;;;;;;31.73;26.07;;;17.00;99.90;;;;;;5049333;28;20198;-80
2022/12/17 13:17:56;;;;;;;34.90;25.13;;;17.00;99.90;;;;;;5069438;28;20612;-80
2022/12/17 13:20:26;;;;;;;33.93;25.23;;;16.90;99.90;;;;;;5076538;28;20202;-80
2022/12/17 13:23:13;;;;;;;31.23;24.33;;;16.90;99.90;;;;;;5071892;28;20783;-80
2022/12/17 13:25:41;;;;;;;33.27;24.60;;;16.90;99.90;;;;;;5058859;28;20274;-79
2022/12/17 13:28:38;;;;;;;36.97;26.70;;;16.90;99.90;;;;;;5052193;28;20194;-79
2022/12/17 13:31:16;;;;;;;32.67;25.37;;;16.90;99.90;;;;;;5047433;28;20190;-78
2022/12/17 13:34:31;;;;;;;30.33;23.80;;;16.80;99.90;;;;;;5063858;28;20217;-79
2022/12/17 13:37:13;;;;;;;31.03;26.17;;;16.80;99.90;;;;;;5062086;28;20839;-78
2022/12/17 13:40:18;;;;;;;33.20;26.30;;;16.80;99.90;;;;;;5055439;28;20616;-79
2022/12/17 13:42:46;;;;;;;32.87;25.50;;;16.70;99.90;;;;;;5057159;28;20206;-78
2022/12/17 13:45:21;;;;;;;33.37;25.87;;;16.70;99.90;;;;;;5066705;28;20272;-78
2022/12/17 13:47:57;;;;;;;30.43;25.47;;;16.70;99.90;;;;;;5063002;28;20186;-78
2022/12/17 13:50:27;;;;;;;32.60;25.03;;;16.70;99.90;;;;;;5049010;28;20186;-78
2022/12/17 13:52:55;;;;;;;32.03;26.10;;;16.70;99.90;;;;;;5061247;28;20192;-78
2022/12/17 13:55:28;;;;;;;34.00;24.90;;;16.70;99.90;;;;;;5075771;28;20214;-78
2022/12/17 13:57:55;;;;;;;37.33;27.60;;;16.70;99.90;;;;;;5058643;28;20688;-78
2022/12/17 14:00:29;;;;;;;35.07;27.50;;;16.60;99.90;;;;;;5065753;28;20324;-78
2022/12/17 14:02:55;;;;;;;34.80;27.30;;;16.60;99.90;;;;;;5081858;28;20335;-78
2022/12/17 14:05:37;;;;;;;33.43;26.20;;;16.60;99.90;;;;;;5078151;28;20195;-78
2022/12/17 14:08:05;;;;;;;36.73;26.17;;;16.60;99.90;;;;;;5064890;28;20190;-78
2022/12/17 14:10:33;;;;;;;40.10;28.30;;;16.60;99.90;;;;;;5070051;28;21083;-78
2022/12/17 14:13:11;;;;;;;33.17;26.50;;;16.60;99.90;;;;;;5056358;28;20545;-78
2022/12/17 14:15:43;;;;;;;35.63;27.57;;;16.60;99.90;;;;;;5047538;28;20277;-78
2022/12/17 14:18:17;;;;;;;35.77;27.33;;;16.60;99.90;;;;;;5059712;28;20195;-78
2022/12/17 14:20:44;;;;;;;37.93;28.23;;;16.50;99.90;;;;;;5048967;28;20195;-78
2022/12/17 14:23:27;;;;;;;39.17;28.67;;;16.50;99.90;;;;;;5045754;28;20218;-78
2022/12/17 14:25:54;;;;;;;36.80;28.60;;;16.50;99.90;;;;;;5065841;28;20191;-78
2022/12/17 14:28:43;;;;;;;39.10;28.60;;;16.50;99.90;;;;;;5064105;28;20183;-78
2022/12/17 14:31:22;;;;;;;36.07;27.93;;;16.40;99.90;;;;;;5074523;28;20184;-78
2022/12/17 14:34:09;;;;;;;37.87;28.53;;;16.40;99.90;;;;;;5069418;28;20199;-78
2022/12/17 14:36:42;;;;;;;39.60;28.80;;;16.30;99.90;;;;;;5072523;28;20251;-78
2022/12/17 14:39:26;;;;;;;38.57;29.40;;;16.30;99.90;;;;;;5082222;28;20211;-78
2022/12/17 14:44:56;;;;;;;40.67;29.70;;;16.20;99.90;;;;;;5081974;28;20219;-78
2022/12/17 14:47:36;;;;;;;36.73;28.63;;;16.20;99.90;;;;;;5048122;28;20604;-78
2022/12/17 14:50:12;;;;;;;40.33;29.60;;;16.10;99.90;;;;;;5074478;28;20192;-78
2022/12/17 14:52:48;;;;;;;38.43;29.37;;;16.10;99.90;;;;;;5059278;28;20194;-78
2022/12/17 14:55:38;;;;;;;38.67;29.47;;;16.10;99.90;;;;;;5066171;28;20183;-78
2022/12/17 14:58:11;;;;;;;34.97;26.83;;;16.10;99.90;;;;;;5067660;28;20620;-78
2022/12/17 15:00:46;;;;;;;36.67;28.30;;;16.00;99.90;;;;;;5085086;28;20186;-78
2022/12/17 15:03:28;;;;;;;38.50;26.30;;;16.00;99.90;;;;;;5093425;28;20500;-78
2022/12/17 15:06:02;;;;;;;33.80;26.27;;;16.00;99.90;;;;;;5069030;28;20210;-78
2022/12/17 15:08:39;;;;;;;32.60;24.40;;;15.90;99.90;;;;;;5085476;28;20454;-78
2022/12/17 15:11:06;;;;;;;31.57;24.30;;;15.90;99.90;;;;;;5076023;28;20508;-78
2022/12/17 15:13:33;;;;;;;33.00;25.60;;;15.80;99.90;;;;;;5068686;28;20195;-78
2022/12/17 15:15:59;;;;;;;35.17;24.70;;;15.70;99.90;;;;;;5068173;28;20298;-78
2022/12/17 15:18:25;;;;;;;30.40;22.93;;;15.60;99.90;;;;;;5068039;28;20567;-78
2022/12/17 15:20:53;;;;;;;31.43;23.20;;;15.60;99.90;;;;;;5068636;28;20252;-78
2022/12/17 15:23:22;;;;;;;32.73;24.40;;;15.50;99.90;;;;;;5051905;28;20268;-78
2022/12/17 15:25:51;;;;;;;33.33;24.40;;;15.50;99.90;;;;;;5051288;28;20190;-78
2022/12/17 15:28:19;;;;;;;29.20;23.70;;;15.40;99.90;;;;;;5068366;28;20256;-78
2022/12/17 15:30:48;;;;;;;30.37;23.73;;;15.30;99.90;;;;;;5068539;28;20183;-78
2022/12/17 15:33:15;;;;;;;36.77;22.70;;;15.30;99.90;;;;;;5066787;28;20282;-78
2022/12/17 15:35:42;;;;;;;31.33;22.63;;;15.20;99.90;;;;;;5069603;28;20203;-78
2022/12/17 15:38:11;;;;;;;32.83;24.63;;;15.20;99.90;;;;;;5048167;28;20667;-78
2022/12/17 15:40:38;;;;;;;30.10;24.63;;;15.20;99.90;;;;;;5051419;28;20297;-78
2022/12/17 15:43:10;;;;;;;35.83;24.57;;;15.20;99.90;;;;;;5050152;28;20215;-78
2022/12/17 15:45:46;;;;;;;34.37;23.27;;;15.20;99.90;;;;;;5063488;28;20190;-78
2022/12/17 15:48:18;;;;;;;29.53;24.17;;;15.10;99.90;;;;;;5067776;28;20277;-78
2022/12/17 15:50:45;;;;;;;33.60;24.77;;;15.10;99.90;;;;;;5082790;28;20191;-78
2022/12/17 15:53:12;;;;;;;32.83;24.67;;;15.10;99.90;;;;;;5076341;28;20190;-78
2022/12/17 15:55:39;;;;;;;32.03;25.03;;;15.10;99.90;;;;;;5067709;28;20210;-78
2022/12/17 15:58:09;;;;;;;34.53;24.17;;;15.10;99.90;;;;;;5068769;28;20190;-78
2022/12/17 16:00:35;;;;;;;28.50;24.27;;;15.10;99.90;;;;;;5065105;28;20198;-78
2022/12/17 16:03:03;;;;;;;32.53;24.40;;;15.10;99.90;;;;;;5064803;28;20325;-78
2022/12/17 16:05:29;;;;;;;30.07;23.73;;;15.10;99.90;;;;;;5047990;28;20194;-78
2022/12/17 16:08:01;;;;;;;35.00;24.87;;;15.10;99.90;;;;;;5049327;28;20251;-78
2022/12/17 16:10:27;;;;;;;33.47;23.87;;;15.00;99.90;;;;;;5070087;28;20183;-78
2022/12/17 16:12:53;;;;;;;32.20;24.27;;;15.10;99.90;;;;;;5047211;28;20527;-77
2022/12/17 16:15:20;;;;;;;36.83;25.43;;;15.10;99.90;;;;;;5068821;28;20220;-77
2022/12/17 16:17:46;;;;;;;28.30;23.73;;;15.20;99.90;;;;;;5048147;28;20645;-77
2022/12/17 16:20:12;;;;;;;32.30;23.90;;;15.30;99.90;;;;;;5061479;28;20595;-77
2022/12/17 16:22:39;;;;;;;28.67;23.83;;;15.20;99.90;;;;;;5096628;28;20187;-77
2022/12/17 16:25:07;;;;;;;32.00;22.87;;;15.20;99.90;;;;;;5070547;28;20705;-77
2022/12/17 16:27:33;;;;;;;27.47;22.67;;;15.20;99.90;;;;;;5074339;28;20194;-77
2022/12/17 16:30:02;;;;;;;27.70;21.77;;;15.20;99.90;;;;;;5065530;28;20670;-77
2022/12/17 16:32:28;;;;;;;27.60;22.87;;;15.20;99.90;;;;;;5081177;28;20666;-77
2022/12/17 16:34:54;;;;;;;27.77;22.90;;;15.10;99.90;;;;;;5054730;28;20182;-77
2022/12/17 16:37:21;;;;;;;29.40;23.07;;;15.10;99.90;;;;;;5071418;28;20197;-77
2022/12/17 16:39:49;;;;;;;26.27;22.53;;;15.10;99.90;;;;;;5068810;28;20660;-77
2022/12/17 16:42:15;;;;;;;27.50;23.73;;;15.10;99.90;;;;;;5058617;28;20615;-77
2022/12/17 16:44:42;;;;;;;28.73;23.07;;;15.10;99.90;;;;;;5056338;28;20276;-77
2022/12/17 16:47:10;;;;;;;31.70;24.17;;;15.10;99.90;;;;;;5065576;28;20540;-77
2022/12/17 16:49:36;;;;;;;27.67;23.07;;;15.00;99.90;;;;;;5064284;28;20187;-76
2022/12/17 16:52:03;;;;;;;32.40;24.00;;;15.00;99.90;;;;;;5061056;28;20225;-76
2022/12/17 16:54:32;;;;;;;28.83;23.23;;;14.90;99.90;;;;;;5058760;28;20262;-76
2022/12/17 16:57:02;;;;;;;34.10;24.17;;;14.90;99.90;;;;;;5058902;28;20257;-76
2022/12/17 16:59:28;;;;;;;35.83;25.77;;;14.80;99.90;;;;;;5060780;28;20217;-76
2022/12/17 17:01:56;;;;;;;32.23;25.57;;;14.80;99.90;;;;;;5068869;28;20194;-76
2022/12/17 17:04:23;;;;;;;34.70;25.87;;;14.80;99.90;;;;;;5069177;28;20202;-76
2022/12/17 17:06:54;;;;;;;38.17;27.13;;;14.80;99.90;;;;;;5081955;28;20186;-76
2022/12/17 17:09:24;;;;;;;35.80;26.67;;;14.70;99.90;;;;;;5063067;28;20279;-76
2022/12/17 17:11:54;;;;;;;34.63;26.17;;;14.70;99.90;;;;;;5077750;28;20212;-77
2022/12/17 17:14:20;;;;;;;40.80;27.10;;;14.70;99.90;;;;;;5077664;28;20712;-77
2022/12/17 17:16:47;;;;;;;36.97;26.60;;;14.70;99.90;;;;;;5071909;28;20205;-77
2022/12/17 17:19:14;;;;;;;32.70;25.33;;;14.70;99.90;;;;;;5059862;28;20199;-77
2022/12/17 17:21:46;;;;;;;33.10;23.87;;;14.60;99.90;;;;;;5042475;28;20209;-77
2022/12/17 17:24:15;;;;;;;30.97;23.47;;;14.60;99.90;;;;;;5057615;28;20219;-77
2022/12/17 17:26:43;;;;;;;33.30;23.40;;;14.60;99.90;;;;;;5075098;28;20179;-77
2022/12/17 17:29:09;;;;;;;30.03;23.20;;;14.60;99.90;;;;;;5058988;28;20188;-77
2022/12/17 17:31:37;;;;;;;30.03;23.00;;;14.50;99.90;;;;;;5073373;28;20239;-77
2022/12/17 17:34:09;;;;;;;29.17;23.47;;;14.50;99.90;;;;;;5080552;28;20239;-77
2022/12/17 17:36:36;;;;;;;33.40;24.03;;;14.50;99.90;;;;;;5067049;28;20202;-77
2022/12/17 17:39:04;;;;;;;35.93;24.03;;;14.50;99.90;;;;;;5058208;28;20205;-77
2022/12/17 17:41:34;;;;;;;31.43;23.03;;;14.40;99.90;;;;;;5056817;28;20285;-77
2022/12/17 17:44:04;;;;;;;27.83;22.63;;;14.30;99.90;;;;;;5074511;28;20213;-77
2022/12/17 17:46:32;;;;;;;31.07;23.57;;;14.30;99.90;;;;;;5069564;28;20186;-77
2022/12/17 17:49:01;;;;;;;29.03;22.53;;;14.30;99.90;;;;;;5054037;28;20178;-77
2022/12/17 17:51:32;;;;;;;27.00;22.23;;;14.30;99.90;;;;;;5065565;28;20614;-77
2022/12/17 17:54:01;;;;;;;36.20;24.50;;;14.30;99.90;;;;;;5052472;28;20224;-78
2022/12/17 17:56:32;;;;;;;28.23;22.93;;;14.30;99.90;;;;;;5061536;28;20203;-77
2022/12/17 17:59:11;;;;;;;28.13;23.37;;;14.30;99.90;;;;;;5059349;28;20768;-77
2022/12/17 18:01:44;;;;;;;32.10;23.53;;;14.20;99.90;;;;;;5053005;28;20188;-77
2022/12/17 18:04:15;;;;;;;28.90;22.57;;;14.20;99.90;;;;;;5087946;28;20614;-77
2022/12/17 18:06:44;;;;;;;28.53;22.47;;;14.20;99.90;;;;;;5047825;28;20266;-77
2022/12/17 18:09:12;;;;;;;27.40;22.57;;;14.10;99.90;;;;;;5063204;28;20183;-77
2022/12/17 18:11:40;;;;;;;28.63;21.93;;;14.10;99.90;;;;;;5065895;28;20656;-77
2022/12/17 18:14:10;;;;;;;31.53;22.67;;;14.00;99.90;;;;;;5044841;28;20186;-77
2022/12/17 18:16:46;;;;;;;28.97;23.10;;;14.00;99.90;;;;;;5062926;28;20198;-77
2022/12/17 18:19:22;;;;;;;32.10;24.20;;;14.00;99.90;;;;;;5054816;28;20194;-77
2022/12/17 18:21:49;;;;;;;34.60;25.53;;;14.00;99.90;;;;;;5080542;28;20209;-77
2022/12/17 18:24:24;;;;;;;32.03;23.57;;;13.90;99.90;;;;;;5084337;28;20213;-77
2022/12/17 18:26:51;;;;;;;31.23;24.23;;;14.00;99.90;;;;;;5077927;28;20206;-77
2022/12/17 18:29:25;;;;;;;33.80;24.97;;;14.00;99.90;;;;;;5062581;28;20233;-77
2022/12/17 18:31:52;;;;;;;31.63;24.17;;;14.00;99.90;;;;;;5070040;28;20193;-77
2022/12/17 18:34:26;;;;;;;34.27;24.03;;;14.00;99.90;;;;;;5081639;28;20202;-77
2022/12/17 18:36:55;;;;;;;33.17;26.27;;;14.00;99.90;;;;;;5069035;28;20288;-77
2022/12/17 18:39:24;;;;;;;37.53;26.77;;;14.00;99.90;;;;;;5066861;28;20202;-77
2022/12/17 18:44:40;;;;;;;38.47;26.10;;;14.00;99.90;;;;;;5057432;28;20203;-77
2022/12/17 18:47:09;;;;;;;35.40;27.17;;;14.00;99.90;;;;;;5078107;28;20282;-77
2022/12/17 18:49:38;;;;;;;37.57;26.97;;;14.00;99.90;;;;;;5038714;28;20347;-77
2022/12/17 18:52:05;;;;;;;37.90;26.00;;;13.90;99.90;;;;;;5058702;28;20207;-77
2022/12/17 18:54:33;;;;;;;34.77;26.90;;;13.80;99.90;;;;;;5064718;28;20597;-77
2022/12/17 18:57:00;;;;;;;38.17;27.17;;;13.80;99.90;;;;;;5066891;28;20277;-77
2022/12/17 18:59:29;;;;;;;37.30;25.67;;;13.70;99.90;;;;;;5093987;28;20193;-77
2022/12/17 19:01:56;;;;;;;39.73;26.20;;;13.70;99.90;;;;;;5053001;28;20206;-77
2022/12/17 19:04:24;;;;;;;35.03;26.50;;;13.70;99.90;;;;;;5060966;28;20202;-77
2022/12/17 19:06:52;;;;;;;38.27;25.63;;;13.70;99.90;;;;;;5070165;28;20198;-78
2022/12/17 19:09:34;;;;;;;31.83;24.03;;;13.70;99.90;;;;;;5068726;28;20193;-77
2022/12/17 19:12:04;;;;;;;31.70;25.07;;;13.70;99.90;;;;;;5067120;28;20369;-77
2022/12/17 19:14:30;;;;;;;30.77;23.60;;;13.60;99.90;;;;;;5060457;28;20297;-77
2022/12/17 19:16:57;;;;;;;32.00;24.57;;;13.60;99.90;;;;;;5071247;28;20559;-77
2022/12/17 19:19:26;;;;;;;36.17;24.43;;;13.80;99.90;;;;;;5035114;28;20200;-77
2022/12/17 19:21:54;;;;;;;32.90;24.87;;;13.70;99.90;;;;;;5061882;28;20969;-77
2022/12/17 19:24:22;;;;;;;34.43;24.43;;;13.70;99.90;;;;;;5072367;28;20689;-77
2022/12/17 19:26:50;;;;;;;35.07;24.90;;;13.70;99.90;;;;;;5073586;28;20309;-77
2022/12/17 19:29:19;;;;;;;30.77;24.13;;;13.60;99.90;;;;;;5079167;28;20186;-77
2022/12/17 19:31:46;;;;;;;30.33;24.67;;;13.50;99.90;;;;;;5076811;28;20691;-76
2022/12/17 19:34:16;;;;;;;32.17;24.60;;;13.50;99.90;;;;;;5073596;28;20191;-77
2022/12/17 19:36:42;;;;;;;35.07;24.30;;;13.50;99.90;;;;;;5067614;28;20195;-77
2022/12/17 19:39:14;;;;;;;33.13;24.40;;;13.50;99.90;;;;;;5056936;28;20191;-77
2022/12/17 19:41:40;;;;;;;33.10;23.40;;;13.50;99.90;;;;;;5043283;28;20277;-77
2022/12/17 19:44:13;;;;;;;30.83;24.10;;;13.50;99.90;;;;;;5063867;28;20234;-77
2022/12/17 19:46:41;;;;;;;28.87;23.43;;;13.40;99.90;;;;;;5057167;28;20282;-77
2022/12/17 19:49:13;;;;;;;28.27;23.63;;;13.40;99.90;;;;;;5065506;28;20192;-77
2022/12/17 19:51:42;;;;;;;29.97;23.93;;;13.40;99.90;;;;;;5067458;28;20193;-77
2022/12/17 19:54:13;;;;;;;29.33;24.03;;;13.40;99.90;;;;;;5078264;28;20195;-77
2022/12/17 19:56:42;;;;;;;32.27;24.20;;;13.30;99.90;;;;;;5069748;28;20202;-77
2022/12/17 19:59:11;;;;;;;35.27;25.20;;;13.30;99.90;;;;;;5064759;28;20232;-77
2022/12/17 20:01:44;;;;;;;33.87;25.53;;;13.30;99.90;;;;;;5065612;28;20195;-77
2022/12/17 20:04:15;;;;;;;36.20;25.30;;;13.30;99.90;;;;;;5066783;28;20203;-77
2022/12/17 20:06:43;;;;;;;36.93;25.97;;;13.40;99.90;;;;;;5068715;28;21228;-76
2022/12/17 20:09:09;;;;;;;34.63;25.40;;;13.40;99.90;;;;;;5042299;28;20182;-76
2022/12/17 20:11:36;;;;;;;34.63;24.70;;;13.40;99.90;;;;;;5068449;28;20213;-76
2022/12/17 20:14:11;;;;;;;34.03;25.50;;;13.40;99.90;;;;;;5061697;28;20548;-76
2022/12/17 20:16:44;;;;;;;31.50;23.87;;;13.40;99.90;;;;;;5070045;28;20661;-76
2022/12/17 20:19:14;;;;;;;30.57;24.20;;;13.30;99.90;;;;;;5058536;28;20298;-76
2022/12/17 20:21:41;;;;;;;30.17;24.13;;;13.30;99.90;;;;;;5070437;28;20194;-76
2022/12/17 20:24:09;;;;;;;31.33;24.30;;;13.20;99.90;;;;;;5065510;28;20210;-76
2022/12/17 20:26:36;;;;;;;35.17;26.30;;;13.20;99.90;;;;;;5058949;28;20725;-76
2022/12/17 20:29:04;;;;;;;33.87;24.70;;;13.20;99.90;;;;;;5071249;28;20186;-76
2022/12/17 20:31:31;;;;;;;35.13;25.70;;;13.20;99.90;;;;;;5070661;28;20190;-76
2022/12/17 20:34:03;;;;;;;34.80;25.40;;;13.30;99.90;;;;;;5069983;28;20190;-76
2022/12/17 20:36:30;;;;;;;35.47;25.67;;;13.30;99.90;;;;;;5064597;28;20199;-76
2022/12/17 20:38:57;;;;;;;33.57;25.37;;;13.30;99.90;;;;;;5068170;28;20240;-76
2022/12/17 20:41:27;;;;;;;33.63;25.87;;;13.40;99.90;;;;;;5068650;28;20660;-77
2022/12/17 20:43:54;;;;;;;34.63;27.00;;;13.40;99.90;;;;;;5069332;28;20225;-76
2022/12/17 20:46:23;;;;;;;36.73;26.70;;;13.50;99.90;;;;;;5063741;28;20244;-76
2022/12/17 20:48:51;;;;;;;34.93;27.00;;;13.50;99.90;;;;;;5070681;28;20698;-76
2022/12/17 20:51:24;;;;;;;38.10;26.87;;;13.50;99.90;;;;;;5075603;28;20622;-76
2022/12/17 20:53:54;;;;;;;36.77;27.50;;;13.60;99.90;;;;;;5079437;28;20560;-76
2022/12/17 20:56:24;;;;;;;43.87;28.17;;;13.60;99.90;;;;;;5063023;28;20218;-76
2022/12/17 20:58:58;;;;;;;37.33;28.23;;;13.60;99.90;;;;;;5059918;28;20536;-76
2022/12/17 21:01:28;;;;;;;35.67;27.87;;;13.60;99.90;;;;;;5081250;28;20202;-76
2022/12/17 21:03:56;;;;;;;33.93;26.43;;;13.60;99.90;;;;;;5063399;28;20211;-77
2022/12/17 21:06:37;;;;;;;42.47;29.67;;;13.60;99.90;;;;;;5065083;28;20183;-77
2022/12/17 21:09:04;;;;;;;43.23;30.70;;;13.60;99.90;;;;;;5047375;28;20190;-76
2022/12/17 21:11:33;;;;;;;42.57;30.57;;;13.70;99.90;;;;;;5069357;28;20186;-76
2022/12/17 21:14:13;;;;;;;51.83;31.63;;;13.70;99.90;;;;;;5067136;28;20257;-76
2022/12/17 21:16:41;;;;;;;50.00;32.47;;;13.80;99.90;;;;;;5073258;28;20205;-76
2022/12/17 21:19:12;;;;;;;48.13;32.57;;;13.80;99.90;;;;;;5082100;28;20214;-76
2022/12/17 21:21:39;;;;;;;48.40;31.10;;;13.80;99.90;;;;;;5063901;28;20237;-76
2022/12/17 21:24:07;;;;;;;43.70;29.27;;;13.70;99.90;;;;;;5045013;28;20227;-76
2022/12/17 21:26:40;;;;;;;40.03;28.70;;;13.70;99.90;;;;;;5058580;28;20297;-76
2022/12/17 21:29:09;;;;;;;39.27;28.67;;;13.60;99.90;;;;;;5066508;28;20194;-77
2022/12/17 21:31:48;;;;;;;36.97;27.27;;;13.60;99.90;;;;;;5078625;28;20184;-77
2022/12/17 21:34:20;;;;;;;38.67;27.53;;;13.70;99.90;;;;;;5055959;28;20226;-76
2022/12/17 21:36:48;;;;;;;37.73;27.03;;;13.70;99.90;;;;;;5043858;28;20583;-76
2022/12/17 21:39:16;;;;;;;40.90;28.27;;;13.70;99.90;;;;;;5046837;28;20233;-76
2022/12/17 21:43:00;;;;;;;39.33;28.33;;;13.70;99.90;;;;;;5064115;28;20240;-76
2022/12/17 21:44:35;;;;;;;39.20;29.03;;;13.70;99.90;;;;;;5060166;28;20211;-76
2022/12/17 21:47:02;;;;;;;40.80;27.80;;;13.70;99.90;;;;;;5085515;28;20195;-76
2022/12/17 21:49:28;;;;;;;41.07;28.93;;;13.70;99.90;;;;;;5064262;28;20214;-77
2022/12/17 21:51:57;;;;;;;39.87;29.50;;;13.70;99.90;;;;;;5055173;28;20201;-77
2022/12/17 21:54:24;;;;;;;40.53;28.83;;;13.70;99.90;;;;;;5063184;28;20183;-76
2022/12/17 21:56:51;;;;;;;42.87;29.63;;;13.70;99.90;;;;;;5070269;28;20194;-77
2022/12/17 21:59:17;;;;;;;38.23;29.17;;;13.70;99.90;;;;;;5066863;28;20225;-76
2022/12/17 22:01:44;;;;;;;44.23;30.13;;;13.80;99.90;;;;;;5071909;28;20276;-76
2022/12/17 22:04:10;;;;;;;39.83;29.27;;;13.80;99.90;;;;;;5063841;28;20260;-77
2022/12/17 22:06:37;;;;;;;42.47;29.43;;;13.80;99.90;;;;;;5054632;28;20583;-76
2022/12/17 22:09:05;;;;;;;45.20;30.87;;;13.90;99.90;;;;;;5059733;28;20190;-76
2022/12/17 22:11:32;;;;;;;44.53;31.27;;;13.90;99.90;;;;;;5054262;28;20187;-76
2022/12/17 22:14:01;;;;;;;47.40;32.53;;;13.90;99.90;;;;;;5065044;28;20202;-77
2022/12/17 22:16:48;;;;;;;45.57;31.23;;;13.90;99.90;;;;;;5066413;28;20198;-77
2022/12/17 22:19:22;;;;;;;45.60;33.07;;;13.90;99.90;;;;;;5077775;28;20307;-76
2022/12/17 22:21:51;;;;;;;50.83;32.93;;;13.90;99.90;;;;;;5064861;28;20202;-76
2022/12/17 22:24:20;;;;;;;50.90;33.90;;;14.00;99.90;;;;;;5074541;28;20388;-77
2022/12/17 22:26:47;;;;;;;57.57;33.90;;;13.90;99.90;;;;;;5060956;28;20511;-76
2022/12/17 22:34:46;;;;;;;56.13;33.77;;;14.00;99.90;;;;;;5065200;28;20217;-76
2022/12/17 22:37:12;;;;;;;47.50;29.77;;;14.00;99.90;;;;;;5067050;28;20345;-76
2022/12/17 22:39:38;;;;;;;46.93;29.67;;;14.00;99.90;;;;;;5064548;28;20255;-76
2022/12/17 22:44:49;;;;;;;38.17;26.97;;;13.80;99.90;;;;;;5066822;28;20617;-76
2022/12/17 22:47:16;;;;;;;38.50;25.80;;;13.70;99.90;;;;;;5072902;28;20772;-76
2022/12/17 22:49:43;;;;;;;32.07;25.10;;;13.70;99.90;;;;;;5067028;28;20198;-76
2022/12/17 22:52:10;;;;;;;35.90;25.30;;;13.70;99.90;;;;;;5081981;28;20210;-76
2022/12/17 22:54:36;;;;;;;32.43;25.37;;;13.60;99.90;;;;;;5068958;28;20201;-76
2022/12/17 22:57:02;;;;;;;36.70;25.23;;;13.60;99.90;;;;;;5064942;28;20190;-76
2022/12/17 22:59:29;;;;;;;38.83;26.53;;;13.50;99.90;;;;;;5044461;28;20202;-77
2022/12/17 23:01:55;;;;;;;35.97;25.67;;;13.40;99.90;;;;;;5065460;28;20273;-77
2022/12/17 23:04:22;;;;;;;33.30;25.00;;;13.40;99.90;;;;;;5051931;28;20657;-76
2022/12/17 23:06:48;;;;;;;34.27;25.07;;;13.40;99.90;;;;;;5066480;28;20198;-77
2022/12/17 23:09:18;;;;;;;32.47;24.20;;;13.30;99.90;;;;;;5049306;28;20344;-76
2022/12/17 23:11:48;;;;;;;32.43;24.70;;;13.30;99.90;;;;;;5068177;28;20201;-77
2022/12/17 23:14:15;;;;;;;33.27;24.23;;;13.20;99.90;;;;;;5079150;28;20540;-77
2022/12/17 23:16:42;;;;;;;30.63;24.33;;;13.10;99.90;;;;;;5060746;28;20285;-76
2022/12/17 23:19:08;;;;;;;30.07;23.63;;;13.10;99.90;;;;;;5055725;28;20198;-77
2022/12/17 23:21:36;;;;;;;32.53;24.83;;;13.10;99.90;;;;;;5068719;28;20226;-76
2022/12/17 23:24:04;;;;;;;31.13;23.90;;;13.10;99.90;;;;;;5069333;28;20210;-76
2022/12/17 23:26:35;;;;;;;34.83;26.10;;;13.00;99.90;;;;;;5070929;28;20194;-76
2022/12/17 23:29:12;;;;;;;35.50;25.47;;;13.00;99.90;;;;;;5046646;28;20186;-76
2022/12/17 23:31:39;;;;;;;32.00;25.10;;;13.00;99.90;;;;;;5071684;28;20186;-76
2022/12/17 23:34:08;;;;;;;35.40;26.13;;;13.00;99.90;;;;;;5082250;28;20203;-76
2022/12/17 23:36:35;;;;;;;31.90;24.20;;;13.00;99.90;;;;;;5072404;28;20587;-77
2022/12/17 23:39:02;;;;;;;32.40;25.27;;;13.00;99.90;;;;;;5065439;28;20900;-76
2022/12/17 23:41:30;;;;;;;30.40;24.77;;;13.00;99.90;;;;;;5072597;28;20195;-77
2022/12/17 23:43:57;;;;;;;32.77;24.77;;;13.00;99.90;;;;;;5085351;28;20233;-77
2022/12/17 23:46:30;;;;;;;31.70;23.90;;;12.90;99.90;;;;;;5078402;28;20187;-76
2022/12/17 23:48:56;;;;;;;33.13;23.57;;;13.00;99.90;;;;;;5054084;28;20195;-76
2022/12/17 23:51:24;;;;;;;29.43;23.23;;;13.00;99.90;;;;;;5076377;28;20198;-76
2022/12/17 23:53:51;;;;;;;33.07;24.33;;;12.90;99.90;;;;;;5078268;28;20222;-76
2022/12/17 23:56:25;;;;;;;34.83;24.53;;;12.90;99.90;;;;;;5064145;28;20275;-76
2022/12/17 23:58:58;;;;;;;30.67;23.77;;;12.90;99.90;;;;;;5088483;28;20195;-76
